createdAt,value
2019-02-07T00:01:43.374Z,74.86
2019-02-07T00:04:13.117Z,74.39
2019-02-07T00:06:42.719Z,74.47
2019-02-07T00:26:35.331Z,75.16
2019-02-07T00:29:05.233Z,74.19
2019-02-07T00:31:34.768Z,75.10
2019-02-07T00:34:04.496Z,74.81
2019-02-07T00:36:34.116Z,73.10
2019-02-07T00:39:04.143Z,72.85
2019-02-07T00:41:33.781Z,71.96
2019-02-07T00:44:03.827Z,71.86
2019-02-07T00:46:33.399Z,72.16
2019-02-07T00:49:03.071Z,73.18
2019-02-07T00:51:32.823Z,71.76
2019-02-07T00:54:02.444Z,72.38
2019-02-07T00:56:32.256Z,72.52
2019-02-07T00:59:01.952Z,71.85
2019-02-07T01:01:31.540Z,72.37
2019-02-07T01:04:01.287Z,73.72
2019-02-07T01:06:30.854Z,73.49
2019-02-07T01:09:00.409Z,72.29
2019-02-07T01:11:30.243Z,73.03
2019-02-07T01:13:59.722Z,73.52
2019-02-07T01:16:29.411Z,72.63
2019-02-07T01:18:59.167Z,73.12
2019-02-07T01:21:28.857Z,72.51
2019-02-07T01:23:58.382Z,73.15
2019-02-07T01:26:28.161Z,72.84
2019-02-07T01:28:57.897Z,72.50
2019-02-07T01:31:27.493Z,73.42
2019-02-07T01:33:56.997Z,72.71
2019-02-07T01:36:26.796Z,72.58
2019-02-07T01:38:56.606Z,73.71
2019-02-07T01:41:26.235Z,73.62
2019-02-07T01:43:55.818Z,74.72
2019-02-07T01:46:25.397Z,75.49
2019-02-07T01:48:55.250Z,74.20
2019-02-07T01:51:25.161Z,73.45
2019-02-07T01:53:54.695Z,73.01
2019-02-07T01:56:24.501Z,72.75
2019-02-07T01:58:54.159Z,72.33
2019-02-07T02:01:24.012Z,72.31
2019-02-07T02:03:53.635Z,73.71
2019-02-07T02:06:23.291Z,72.96
2019-02-07T02:08:52.888Z,72.44
2019-02-07T02:28:44.869Z,74.81
2019-02-07T02:31:14.666Z,74.75
2019-02-07T02:33:44.177Z,74.33
2019-02-07T02:36:13.778Z,75.38
2019-02-07T02:38:43.427Z,75.70
2019-02-07T02:41:13.103Z,75.20
2019-02-07T02:43:42.731Z,74.27
2019-02-07T02:46:12.459Z,72.83
2019-02-07T02:48:42.160Z,73.65
2019-02-07T02:51:11.684Z,73.59
2019-02-07T02:53:41.454Z,72.65
2019-02-07T02:56:11.265Z,73.57
2019-02-07T02:58:40.937Z,73.87
2019-02-07T03:01:41.033Z,73.93
2019-02-07T03:04:15.932Z,74.96
2019-02-07T03:06:50.788Z,75.89
2019-02-07T03:10:23.739Z,75.48
2019-02-07T03:13:12.568Z,75.65
2019-02-07T03:15:50.022Z,76.22
2019-02-07T03:18:22.861Z,76.80
2019-02-07T03:20:57.856Z,76.84
2019-02-07T03:23:32.724Z,76.59
2019-02-07T03:26:07.480Z,75.58
2019-02-07T03:29:42.092Z,75.62
2019-02-07T03:32:17.661Z,76.17
2019-02-07T03:34:52.390Z,76.88
2019-02-07T03:37:32.969Z,76.56
2019-02-07T03:40:07.721Z,75.43
2019-02-07T03:42:44.373Z,74.83
2019-02-07T03:45:22.204Z,75.52
2019-02-07T03:47:57.012Z,76.36
2019-02-07T03:50:34.810Z,75.93
2019-02-07T03:54:13.538Z,76.36
2019-02-07T03:56:52.062Z,76.17
2019-02-07T04:01:30.847Z,76.50
2019-02-07T04:04:04.572Z,76.26
2019-02-07T04:07:37.305Z,76.65
2019-02-07T04:10:12.258Z,76.47
2019-02-07T04:12:47.102Z,75.65
2019-02-07T04:15:21.731Z,75.50
2019-02-07T04:18:05.491Z,74.14
2019-02-07T04:20:48.264Z,73.74
2019-02-07T04:23:22.937Z,73.64
2019-02-07T04:26:01.356Z,74.38
2019-02-07T04:28:34.991Z,74.35
2019-02-07T04:31:12.755Z,74.98
2019-02-07T04:33:48.608Z,74.80
2019-02-07T04:36:28.082Z,74.89
2019-02-07T04:39:09.634Z,75.95
2019-02-07T04:42:19.597Z,75.68
2019-02-07T04:44:54.156Z,76.29
2019-02-07T04:47:29.855Z,76.49
2019-02-07T04:50:04.579Z,77.37
2019-02-07T04:52:45.452Z,76.38
2019-02-07T04:55:32.235Z,75.58
2019-02-07T04:58:11.888Z,75.84
2019-02-07T05:00:45.685Z,76.36
2019-02-07T05:04:20.654Z,76.42
2019-02-07T05:06:57.631Z,76.00
2019-02-07T05:09:32.429Z,74.82
2019-02-07T05:12:07.043Z,74.91
2019-02-07T05:35:11.127Z,75.72
2019-02-07T05:38:47.032Z,77.08
2019-02-07T05:41:25.017Z,75.90
2019-02-07T05:44:30.416Z,75.27
2019-02-07T05:49:10.387Z,76.32
2019-02-07T05:51:49.208Z,76.23
2019-02-07T05:54:26.748Z,77.08
2019-02-07T05:57:00.643Z,77.06
2019-02-07T06:17:02.802Z,77.78
2019-02-07T06:19:30.289Z,77.65
2019-02-07T06:22:18.979Z,77.42
2019-02-07T06:25:00.424Z,77.11
2019-02-07T06:28:37.731Z,77.03
2019-02-07T06:31:13.515Z,76.02
2019-02-07T06:34:07.717Z,76.07
2019-02-07T06:36:45.167Z,76.13
2019-02-07T06:39:20.155Z,75.58
2019-02-07T06:41:55.042Z,75.70
2019-02-07T06:44:29.878Z,75.66
2019-02-07T06:47:13.283Z,75.55
2019-02-07T06:49:44.422Z,75.01
2019-02-07T06:53:17.284Z,74.96
2019-02-07T06:55:51.872Z,74.90
2019-02-07T06:59:24.341Z,75.25
2019-02-07T07:04:02.498Z,75.08
2019-02-07T07:06:54.403Z,75.14
2019-02-07T07:09:28.086Z,76.52
2019-02-07T07:12:05.863Z,76.29
2019-02-07T07:14:40.299Z,75.71
2019-02-07T07:17:25.437Z,75.92
2019-02-07T07:19:53.833Z,75.80
2019-02-07T07:22:28.607Z,76.21
2019-02-07T07:27:09.780Z,76.42
2019-02-07T07:29:44.597Z,75.28
2019-02-07T07:32:18.273Z,74.46
2019-02-07T07:34:52.994Z,73.94
2019-02-07T07:37:27.806Z,74.04
2019-02-07T07:40:07.431Z,73.63
2019-02-07T07:42:42.275Z,73.77
2019-02-07T07:45:21.364Z,71.29
2019-02-07T07:48:58.114Z,71.90
2019-02-07T07:51:37.831Z,71.96
2019-02-07T07:54:46.901Z,71.52
2019-02-07T07:57:21.717Z,70.04
2019-02-07T08:00:01.190Z,71.67
2019-02-07T08:02:37.232Z,71.73
2019-02-07T08:05:13.280Z,72.04
2019-02-07T08:09:54.647Z,72.56
2019-02-07T08:12:29.484Z,71.46
2019-02-07T08:15:04.084Z,71.29
2019-02-07T08:17:47.704Z,71.64
2019-02-07T08:37:45.592Z,70.88
2019-02-07T08:40:25.274Z,71.13
2019-02-07T08:42:59.901Z,71.66
2019-02-07T08:45:35.652Z,71.09
2019-02-07T08:48:17.514Z,71.50
2019-02-07T08:50:58.452Z,70.96
2019-02-07T08:53:39.027Z,69.93
2019-02-07T08:56:15.763Z,70.12
2019-02-07T08:58:50.624Z,68.87
2019-02-07T09:01:24.387Z,69.17
2019-02-07T09:06:04.161Z,70.25
2019-02-07T09:08:43.702Z,69.77
2019-02-07T09:11:18.736Z,68.55
2019-02-07T09:13:53.786Z,67.70
2019-02-07T09:17:28.664Z,66.47
2019-02-07T09:22:08.557Z,64.80
2019-02-07T09:24:47.541Z,61.84
2019-02-07T09:28:27.277Z,61.92
2019-02-07T09:31:11.104Z,60.02
2019-02-07T09:33:48.802Z,60.59
2019-02-07T09:36:22.679Z,60.92
2019-02-07T09:39:59.281Z,60.43
2019-02-07T09:42:37.159Z,59.17
2019-02-07T09:45:27.967Z,59.75
2019-02-07T09:48:03.625Z,57.94
2019-02-07T09:51:40.832Z,59.02
2019-02-07T09:54:22.503Z,61.22
2019-02-07T09:59:03.583Z,61.15
2019-02-07T10:02:36.900Z,60.04
2019-02-07T10:05:12.775Z,59.35
2019-02-07T10:07:54.727Z,60.67
2019-02-07T10:10:31.508Z,61.63
2019-02-07T10:13:06.272Z,62.26
2019-02-07T10:15:55.956Z,62.50
2019-02-07T10:18:33.277Z,58.62
2019-02-07T10:21:06.267Z,59.02
2019-02-07T10:23:41.062Z,58.79
2019-02-07T10:27:13.524Z,57.05
2019-02-07T10:29:48.287Z,57.57
2019-02-07T10:32:24.120Z,58.21
2019-02-07T10:35:11.034Z,58.52
2019-02-07T10:37:45.948Z,57.70
2019-02-07T10:41:19.860Z,58.11
2019-02-07T10:43:54.367Z,58.60
2019-02-07T10:46:28.065Z,60.29
2019-02-07T10:51:09.440Z,58.40
2019-02-07T10:53:45.749Z,57.59
2019-02-07T10:56:51.923Z,57.20
2019-02-07T11:00:24.429Z,59.73
2019-02-07T11:02:59.639Z,59.08
2019-02-07T11:07:41.324Z,58.79
2019-02-07T11:10:20.095Z,59.54
2019-02-07T11:13:10.775Z,58.68
2019-02-07T11:15:46.228Z,60.02
2019-02-07T11:18:38.890Z,58.08
2019-02-07T11:21:13.769Z,58.13
2019-02-07T11:23:48.494Z,58.08
2019-02-07T11:28:26.945Z,58.31
2019-02-07T11:31:00.573Z,56.49
2019-02-07T11:34:03.480Z,56.90
2019-02-07T11:36:37.287Z,57.74
2019-02-07T11:40:18.875Z,57.89
2019-02-07T11:44:57.552Z,58.02
2019-02-07T11:48:30.729Z,57.41
2019-02-07T11:51:15.312Z,60.07
2019-02-07T12:11:28.616Z,54.66
2019-02-07T12:14:17.765Z,56.80
2019-02-07T12:17:54.135Z,55.05
2019-02-07T12:39:54.454Z,57.81
2019-02-07T12:42:29.240Z,58.74
2019-02-07T13:02:30.946Z,58.14
2019-02-07T13:40:52.272Z,58.83
2019-02-07T13:43:27.040Z,59.05
2019-02-07T13:46:05.926Z,60.10
2019-02-07T13:48:42.725Z,61.07
2019-02-07T13:52:17.153Z,61.29
2019-02-07T13:55:55.895Z,60.71
2019-02-07T14:00:33.278Z,61.85
2019-02-07T14:03:07.070Z,62.03
2019-02-07T14:05:41.798Z,61.39
2019-02-07T14:08:19.758Z,61.00
2019-02-07T14:10:54.436Z,61.74
2019-02-07T14:30:56.372Z,61.29
2019-02-07T14:33:31.166Z,61.28
2019-02-07T14:53:20.829Z,59.36
2019-02-07T15:13:10.164Z,59.53
2019-02-07T15:15:39.944Z,59.35
2019-02-07T15:18:09.627Z,59.21
2019-02-07T15:20:39.567Z,59.74
2019-02-07T15:23:09.153Z,60.08
2019-02-07T15:25:38.818Z,60.42
2019-02-07T15:28:08.661Z,60.70
2019-02-07T15:30:38.208Z,60.71
2019-02-07T15:33:07.663Z,60.19
2019-02-07T15:35:40.114Z,60.92
2019-02-07T15:38:09.863Z,60.75
2019-02-07T15:40:39.511Z,60.31
2019-02-07T15:43:09.452Z,60.99
2019-02-07T15:45:39.262Z,62.29
2019-02-07T15:48:09.140Z,62.07
2019-02-07T15:50:39.011Z,61.72
2019-02-07T15:53:08.950Z,61.97
2019-02-07T15:55:38.809Z,62.20
2019-02-07T15:58:08.655Z,63.15
2019-02-07T16:00:43.524Z,63.51
2019-02-07T16:03:18.822Z,62.62
2019-02-07T16:05:48.531Z,62.79
2019-02-07T16:08:18.239Z,63.00
2019-02-07T16:10:48.153Z,63.72
2019-02-07T16:13:17.725Z,63.19
2019-02-07T16:15:47.345Z,63.73
2019-02-07T16:18:17.225Z,63.31
2019-02-07T16:20:48.867Z,63.35
2019-02-07T16:23:16.263Z,63.30
2019-02-07T16:25:46.048Z,63.53
2019-02-07T16:28:15.641Z,65.08
2019-02-07T16:30:45.385Z,65.30
2019-02-07T16:33:15.680Z,65.05
2019-02-07T16:35:45.321Z,64.80
2019-02-07T16:38:14.789Z,65.36
2019-02-07T16:40:44.362Z,65.08
2019-02-07T16:43:14.734Z,64.93
2019-02-07T16:45:44.432Z,65.76
2019-02-07T16:48:14.251Z,66.62
2019-02-07T16:50:43.901Z,66.36
2019-02-07T16:53:13.564Z,66.75
2019-02-07T16:55:43.544Z,67.19
2019-02-07T16:58:13.140Z,66.38
2019-02-07T17:00:43.060Z,66.17
2019-02-07T17:03:12.849Z,65.81
2019-02-07T17:05:42.475Z,66.02
2019-02-07T17:08:11.981Z,72.55
2019-02-07T17:10:41.962Z,57.60
2019-02-07T17:13:11.900Z,68.25
2019-02-07T17:15:41.642Z,68.74
2019-02-07T17:18:11.704Z,63.94
2019-02-07T17:20:41.437Z,74.51
2019-02-07T17:23:11.059Z,77.56
2019-02-07T17:25:40.965Z,74.05
2019-02-07T17:28:10.510Z,74.09
2019-02-07T17:30:40.195Z,80.52
2019-02-07T17:33:10.043Z,74.74
2019-02-07T17:35:39.679Z,79.83
2019-02-07T17:38:12.357Z,61.63
2019-02-07T17:40:41.988Z,80.84
2019-02-07T17:43:11.509Z,87.46
2019-02-07T17:45:41.210Z,71.39
2019-02-07T17:48:10.697Z,70.72
2019-02-07T17:50:40.623Z,61.09
2019-02-07T17:53:10.376Z,55.47
2019-02-07T17:55:40.101Z,64.38
2019-02-07T17:58:09.832Z,64.72
2019-02-07T18:00:46.487Z,53.57
2019-02-07T18:03:15.881Z,49.74
2019-02-07T18:05:45.658Z,51.84
2019-02-07T18:08:15.294Z,50.19
2019-02-07T18:10:45.107Z,53.20
2019-02-07T18:13:14.887Z,54.89
2019-02-07T18:15:44.397Z,56.10
2019-02-07T18:18:13.864Z,57.37
2019-02-07T18:20:43.779Z,58.91
2019-02-07T18:23:13.482Z,59.96
2019-02-07T18:25:43.112Z,60.21
2019-02-07T18:28:12.822Z,60.59
2019-02-07T18:30:42.558Z,61.28
2019-02-07T18:33:12.307Z,62.45
2019-02-07T18:35:42.391Z,62.25
2019-02-07T18:38:12.086Z,62.60
2019-02-07T18:40:41.542Z,63.29
2019-02-07T18:43:11.368Z,63.01
2019-02-07T18:45:40.763Z,63.72
2019-02-07T18:48:10.606Z,63.76
2019-02-07T18:50:40.479Z,63.55
2019-02-07T18:53:10.011Z,64.39
2019-02-07T18:55:39.842Z,64.62
2019-02-07T18:58:09.321Z,63.47
2019-02-07T19:00:39.276Z,64.07
2019-02-07T19:03:09.051Z,63.71
2019-02-07T19:05:38.743Z,63.89
2019-02-07T19:08:08.625Z,64.12
2019-02-07T19:10:38.413Z,63.62
2019-02-07T19:13:07.996Z,63.79
2019-02-07T19:15:42.414Z,62.92
2019-02-07T19:18:11.902Z,63.90
2019-02-07T19:20:41.615Z,64.23
2019-02-07T19:23:11.575Z,64.69
2019-02-07T19:25:41.160Z,64.08
2019-02-07T19:28:10.906Z,64.19
2019-02-07T19:30:40.601Z,64.43
2019-02-07T19:33:10.190Z,64.34
2019-02-07T19:35:39.793Z,64.37
2019-02-07T19:38:09.647Z,65.24
2019-02-07T19:40:39.299Z,65.50
2019-02-07T19:43:09.051Z,65.32
2019-02-07T19:45:38.734Z,65.56
2019-02-07T19:48:08.245Z,65.95
2019-02-07T19:50:37.974Z,65.72
2019-02-07T19:53:07.771Z,65.60
2019-02-07T19:55:37.764Z,65.72
2019-02-07T19:58:07.597Z,65.97
2019-02-07T20:00:39.485Z,65.18
2019-02-07T20:03:07.364Z,66.32
2019-02-07T20:05:36.935Z,66.47
2019-02-07T20:08:06.888Z,66.11
2019-02-07T20:10:36.660Z,66.93
2019-02-07T20:13:06.501Z,66.36
2019-02-07T20:15:38.310Z,67.05
2019-02-07T20:18:08.927Z,66.51
2019-02-07T20:20:38.890Z,67.58
2019-02-07T20:23:08.545Z,67.92
2019-02-07T20:25:38.508Z,67.87
2019-02-07T20:28:08.111Z,67.01
2019-02-07T20:30:39.443Z,67.44
2019-02-07T20:33:09.814Z,67.48
2019-02-07T20:35:39.451Z,66.51
2019-02-07T20:38:10.075Z,67.30
2019-02-07T20:40:39.853Z,67.55
2019-02-07T20:43:10.023Z,67.34
2019-02-07T20:45:39.767Z,67.65
2019-02-07T20:48:10.035Z,67.72
2019-02-07T20:50:39.516Z,67.48
2019-02-07T20:53:09.406Z,68.29
2019-02-07T20:55:39.130Z,67.61
2019-02-07T20:58:08.765Z,67.27
2019-02-07T21:00:39.376Z,68.29
2019-02-07T21:03:09.160Z,67.70
2019-02-07T21:05:38.997Z,68.46
2019-02-07T21:08:08.668Z,67.82
2019-02-07T21:10:38.486Z,68.32
2019-02-07T21:13:07.949Z,69.00
2019-02-07T21:15:37.605Z,68.90
2019-02-07T21:18:07.350Z,69.75
2019-02-07T21:20:36.932Z,69.38
2019-02-07T21:23:06.838Z,69.05
2019-02-07T21:25:42.591Z,69.26
2019-02-07T21:28:12.424Z,68.77
2019-02-07T21:30:41.952Z,68.68
2019-02-07T21:33:11.641Z,68.78
2019-02-07T21:35:41.249Z,68.56
2019-02-07T21:38:11.794Z,69.23
2019-02-07T21:40:41.591Z,69.80
2019-02-07T21:43:11.238Z,69.07
2019-02-07T21:45:40.812Z,69.09
2019-02-07T21:48:11.484Z,68.60
2019-02-07T21:50:41.072Z,68.35
2019-02-07T21:53:10.662Z,69.22
2019-02-07T21:55:40.326Z,68.94
2019-02-07T21:58:10.244Z,68.73
2019-02-07T22:00:41.720Z,68.62
2019-02-07T22:03:13.202Z,67.92
2019-02-07T22:05:43.210Z,68.36
2019-02-07T22:08:12.890Z,68.08
2019-02-07T22:10:42.638Z,67.12
2019-02-07T22:13:12.395Z,66.97
2019-02-07T22:15:41.946Z,65.59
2019-02-07T22:18:11.606Z,65.12
2019-02-07T22:20:41.406Z,65.65
2019-02-07T22:23:11.371Z,64.76
2019-02-07T22:25:41.021Z,65.61
2019-02-07T22:28:10.823Z,64.61
2019-02-07T22:30:40.600Z,65.05
2019-02-07T22:33:10.150Z,64.85
2019-02-07T22:35:39.789Z,65.85
2019-02-07T22:38:09.612Z,65.93
2019-02-07T22:40:39.156Z,66.25
2019-02-07T22:43:08.909Z,65.26
2019-02-07T22:45:38.864Z,66.15
2019-02-07T22:48:08.694Z,66.46
2019-02-07T22:50:38.695Z,66.45
2019-02-07T22:53:08.389Z,67.18
2019-02-07T22:55:38.051Z,66.87
2019-02-07T22:58:08.830Z,66.86
2019-02-07T23:00:50.251Z,66.72
2019-02-07T23:03:20.100Z,67.13
2019-02-07T23:05:49.681Z,67.10
2019-02-07T23:08:19.309Z,66.66
2019-02-07T23:10:48.967Z,67.04
2019-02-07T23:13:18.520Z,67.29
2019-02-07T23:15:48.025Z,66.87
2019-02-07T23:18:17.816Z,66.54
2019-02-07T23:20:47.598Z,67.01
2019-02-07T23:23:17.135Z,66.82
2019-02-07T23:25:46.923Z,66.92
2019-02-07T23:28:16.572Z,66.49
2019-02-07T23:30:46.319Z,66.29
2019-02-07T23:33:15.956Z,66.71
2019-02-07T23:35:45.503Z,67.02
2019-02-07T23:38:14.896Z,66.92
2019-02-07T23:40:44.747Z,66.70
2019-02-07T23:43:14.356Z,65.99
2019-02-07T23:45:44.068Z,65.97
2019-02-07T23:48:13.666Z,66.15
2019-02-07T23:50:43.283Z,66.79
2019-02-07T23:53:14.567Z,66.51
2019-02-07T23:55:42.584Z,65.76
2019-02-07T23:58:12.299Z,65.89
